Time;durP1;ratioP1;P1;durP2;ratioP2;P2;SDS_P1;SDS_P2;PMS_P1;PMS_P2;Temp;Humidity;BMP_temperature;BMP_pressure;BME280_temperature;BME280_humidity;BME280_pressure;Samples;Min_cycle;Max_cycle;Signal;HPM_P1;HPM_P2
2021/05/13 00:01:54;;;;;;;0.00;0.00;;;;;;;;;;5019753;28;20326;-65
2021/05/13 00:04:21;;;;;;;0.00;0.00;;;;;;;;;;5015087;28;20232;-66
2021/05/13 00:06:48;;;;;;;0.00;0.00;;;;;;;;;;5016710;28;20458;-66
2021/05/13 00:09:15;;;;;;;0.10;0.10;;;;;;;;;;5016990;28;20195;-65
2021/05/13 00:11:48;;;;;;;0.00;0.00;;;;;;;;;;5016569;28;20755;-65
2021/05/13 00:14:16;;;;;;;2.17;0.93;;;;;;;;;;5016161;28;20667;-66
2021/05/13 00:16:43;;;;;;;4.03;2.43;;;;;;;;;;5015614;28;20189;-66
2021/05/13 00:19:15;;;;;;;0.57;0.30;;;;;;;;;;5018714;28;20188;-65
2021/05/13 00:21:44;;;;;;;2.77;1.13;;;;;;;;;;5017424;28;20192;-65
2021/05/13 00:24:11;;;;;;;0.00;0.00;;;;;;;;;;5017171;28;20189;-65
2021/05/13 00:26:41;;;;;;;0.00;0.00;;;;;;;;;;4994074;28;20291;-65
2021/05/13 00:29:15;;;;;;;2.13;0.77;;;;;;;;;;5017631;28;20556;-65
2021/05/13 00:31:43;;;;;;;0.00;0.00;;;;;;;;;;4999774;28;20198;-65
2021/05/13 00:34:10;;;;;;;0.00;0.00;;;;;;;;;;4998838;28;20200;-66
2021/05/13 00:36:38;;;;;;;0.00;0.00;;;;;;;;;;5014291;28;20830;-65
2021/05/13 00:39:08;;;;;;;0.00;0.00;;;;;;;;;;4998080;28;20184;-65
2021/05/13 00:41:35;;;;;;;0.00;0.00;;;;;;;;;;5015494;28;20188;-65
2021/05/13 00:44:01;;;;;;;2.50;0.83;;;;;;;;;;5017306;28;20192;-65
2021/05/13 00:46:30;;;;;;;0.57;0.57;;;;;;;;;;5015398;28;20204;-66
2021/05/13 00:49:16;;;;;;;0.43;0.43;;;;;;;;;;5015918;28;20192;-65
2021/05/13 00:51:45;;;;;;;0.00;0.00;;;;;;;;;;5014842;28;20974;-65
2021/05/13 00:54:13;;;;;;;1.33;1.23;;;;;;;;;;5017804;28;20208;-66
2021/05/13 00:56:40;;;;;;;0.00;0.00;;;;;;;;;;4999747;28;20180;-65
2021/05/13 00:59:09;;;;;;;0.00;0.00;;;;;;;;;;5018963;28;21058;-65
2021/05/13 01:01:59;;;;;;;0.43;0.37;;;;;;;;;;5016802;28;20893;-65
2021/05/13 01:04:23;;;;;;;0.60;0.23;;;;;;;;;;5014206;28;20255;-65
2021/05/13 01:06:50;;;;;;;0.00;0.00;;;;;;;;;;5015407;28;20251;-65
2021/05/13 01:09:36;;;;;;;0.00;0.00;;;;;;;;;;5012021;28;20231;-65
2021/05/13 01:12:06;;;;;;;0.00;0.00;;;;;;;;;;5013586;28;20311;-65
2021/05/13 01:14:42;;;;;;;0.30;0.20;;;;;;;;;;5002202;28;20460;-65
2021/05/13 01:19:45;;;;;;;0.10;0.10;;;;;;;;;;5016695;28;20211;-65
2021/05/13 01:22:15;;;;;;;0.00;0.00;;;;;;;;;;4999171;28;20184;-66
2021/05/13 01:24:43;;;;;;;5.80;1.00;;;;;;;;;;5010366;28;20226;-65
2021/05/13 01:27:11;;;;;;;0.37;0.37;;;;;;;;;;5019301;28;20195;-65
2021/05/13 01:29:49;;;;;;;0.00;0.00;;;;;;;;;;5017366;28;20224;-65
2021/05/13 01:32:18;;;;;;;0.00;0.00;;;;;;;;;;5018933;28;20188;-65
2021/05/13 01:34:45;;;;;;;0.00;0.00;;;;;;;;;;4998456;28;20231;-65
2021/05/13 01:37:11;;;;;;;0.23;0.23;;;;;;;;;;5014665;28;20426;-65
2021/05/13 01:39:38;;;;;;;1.33;0.20;;;;;;;;;;5014315;28;20299;-65
2021/05/13 01:42:05;;;;;;;0.20;0.20;;;;;;;;;;5014927;28;20181;-65
2021/05/13 01:44:32;;;;;;;0.00;0.00;;;;;;;;;;5016633;28;20197;-65
2021/05/13 01:46:58;;;;;;;0.27;0.17;;;;;;;;;;5016797;28;20658;-66
2021/05/13 01:49:26;;;;;;;0.00;0.00;;;;;;;;;;5014781;28;20241;-65
2021/05/13 01:51:53;;;;;;;0.00;0.00;;;;;;;;;;5013726;28;20593;-65
2021/05/13 01:54:19;;;;;;;0.00;0.00;;;;;;;;;;5013320;28;20207;-66
2021/05/13 01:56:47;;;;;;;5.37;0.30;;;;;;;;;;5018136;28;20237;-65
2021/05/13 01:59:14;;;;;;;0.03;0.00;;;;;;;;;;5015942;28;20227;-65
2021/05/13 02:01:40;;;;;;;0.00;0.00;;;;;;;;;;5016474;28;20238;-66
2021/05/13 02:04:07;;;;;;;0.00;0.00;;;;;;;;;;5016017;28;20184;-66
2021/05/13 02:06:34;;;;;;;0.00;0.00;;;;;;;;;;5017748;28;20181;-66
2021/05/13 02:09:00;;;;;;;0.93;0.50;;;;;;;;;;5018909;28;21304;-66
2021/05/13 02:11:28;;;;;;;0.00;0.00;;;;;;;;;;5012729;28;20204;-65
2021/05/13 02:13:55;;;;;;;1.70;0.47;;;;;;;;;;5010956;28;20224;-66
2021/05/13 02:16:21;;;;;;;0.63;0.63;;;;;;;;;;5012701;28;20314;-65
2021/05/13 02:18:48;;;;;;;0.00;0.00;;;;;;;;;;5014061;28;20184;-65
2021/05/13 02:21:14;;;;;;;0.00;0.00;;;;;;;;;;5014310;28;20803;-65
2021/05/13 02:23:42;;;;;;;0.07;0.07;;;;;;;;;;5015561;28;20188;-65
2021/05/13 02:26:09;;;;;;;0.13;0.13;;;;;;;;;;5012722;28;20207;-65
2021/05/13 02:28:36;;;;;;;4.53;0.20;;;;;;;;;;5009723;28;20246;-65
2021/05/13 02:31:03;;;;;;;0.00;0.00;;;;;;;;;;5020525;28;20198;-65
2021/05/13 02:33:30;;;;;;;0.00;0.00;;;;;;;;;;5013695;28;20239;-65
2021/05/13 02:35:57;;;;;;;2.73;0.50;;;;;;;;;;5010057;28;20309;-65
2021/05/13 02:38:24;;;;;;;5.90;2.70;;;;;;;;;;5013811;28;20180;-64
2021/05/13 02:40:51;;;;;;;0.00;0.00;;;;;;;;;;4994684;28;20615;-65
2021/05/13 02:43:19;;;;;;;0.00;0.00;;;;;;;;;;5018442;28;20610;-65
2021/05/13 02:45:46;;;;;;;0.00;0.00;;;;;;;;;;5017845;28;20191;-65
2021/05/13 02:48:17;;;;;;;2.77;0.10;;;;;;;;;;5019515;28;20180;-65
2021/05/13 02:50:45;;;;;;;3.10;0.40;;;;;;;;;;5018903;28;20188;-66
2021/05/13 02:53:15;;;;;;;0.00;0.00;;;;;;;;;;5023857;28;20869;-66
2021/05/13 02:55:43;;;;;;;0.93;0.23;;;;;;;;;;5014687;28;20204;-65
2021/05/13 02:58:10;;;;;;;0.10;0.10;;;;;;;;;;5010887;28;20462;-65
2021/05/13 03:00:49;;;;;;;0.00;0.00;;;;;;;;;;5017934;28;20184;-65
2021/05/13 03:03:17;;;;;;;0.57;0.57;;;;;;;;;;5001369;28;20231;-65
2021/05/13 03:05:45;;;;;;;0.10;0.10;;;;;;;;;;5018695;28;20223;-64
2021/05/13 03:08:14;;;;;;;0.20;0.20;;;;;;;;;;5018420;28;20866;-64
2021/05/13 03:10:44;;;;;;;0.77;0.20;;;;;;;;;;5016793;28;20223;-64
2021/05/13 03:13:19;;;;;;;0.00;0.00;;;;;;;;;;5019272;28;20258;-63
2021/05/13 03:15:48;;;;;;;0.17;0.17;;;;;;;;;;5020988;28;21017;-63
2021/05/13 03:18:15;;;;;;;0.00;0.00;;;;;;;;;;5017399;28;20298;-64
2021/05/13 03:20:50;;;;;;;0.93;0.30;;;;;;;;;;5021311;28;20480;-63
2021/05/13 03:23:23;;;;;;;0.00;0.00;;;;;;;;;;5019195;28;20198;-64
2021/05/13 03:25:58;;;;;;;0.00;0.00;;;;;;;;;;5020218;28;20189;-64
2021/05/13 03:28:25;;;;;;;0.00;0.00;;;;;;;;;;5014223;28;20198;-65
2021/05/13 03:30:52;;;;;;;0.00;0.00;;;;;;;;;;5019728;28;20229;-65
2021/05/13 03:33:20;;;;;;;0.00;0.00;;;;;;;;;;5018117;28;20599;-65
2021/05/13 03:35:47;;;;;;;1.10;0.73;;;;;;;;;;5016994;28;20207;-65
2021/05/13 03:38:15;;;;;;;0.00;0.00;;;;;;;;;;5020435;28;20188;-65
2021/05/13 03:40:43;;;;;;;0.00;0.00;;;;;;;;;;5019630;28;20238;-65
2021/05/13 03:43:11;;;;;;;0.17;0.17;;;;;;;;;;5021892;28;20192;-66
2021/05/13 03:45:39;;;;;;;1.30;0.57;;;;;;;;;;5018590;28;20660;-65
2021/05/13 03:48:08;;;;;;;0.13;0.13;;;;;;;;;;5019685;28;20511;-65
2021/05/13 03:50:36;;;;;;;0.20;0.20;;;;;;;;;;5027573;28;20187;-65
2021/05/13 03:53:04;;;;;;;0.60;0.57;;;;;;;;;;5018116;28;20196;-65
2021/05/13 03:55:31;;;;;;;2.37;1.30;;;;;;;;;;5016190;28;20847;-65
2021/05/13 03:57:59;;;;;;;6.30;0.60;;;;;;;;;;5016950;28;20303;-65
2021/05/13 04:00:40;;;;;;;5.83;0.20;;;;;;;;;;5012031;28;20204;-65
2021/05/13 04:03:06;;;;;;;1.87;0.67;;;;;;;;;;5010719;28;20697;-65
2021/05/13 04:05:33;;;;;;;0.00;0.00;;;;;;;;;;5010957;28;20952;-65
2021/05/13 04:07:59;;;;;;;0.17;0.17;;;;;;;;;;5011947;28;20198;-65
2021/05/13 04:10:26;;;;;;;0.00;0.00;;;;;;;;;;5017692;28;20731;-65
2021/05/13 04:12:56;;;;;;;0.33;0.33;;;;;;;;;;5017735;28;20203;-65
2021/05/13 04:15:22;;;;;;;0.30;0.30;;;;;;;;;;5016028;28;20208;-65
2021/05/13 04:17:49;;;;;;;0.10;0.10;;;;;;;;;;5017865;28;20192;-65
2021/05/13 04:20:15;;;;;;;0.10;0.10;;;;;;;;;;5019277;28;20210;-65
2021/05/13 04:22:42;;;;;;;0.00;0.00;;;;;;;;;;5017945;28;20203;-65
2021/05/13 04:25:09;;;;;;;11.40;0.53;;;;;;;;;;5023486;28;20198;-66
2021/05/13 04:27:35;;;;;;;0.60;0.60;;;;;;;;;;5018474;28;20542;-65
2021/05/13 04:30:02;;;;;;;0.20;0.20;;;;;;;;;;5018443;28;20192;-65
2021/05/13 04:32:28;;;;;;;0.00;0.00;;;;;;;;;;5018608;28;20286;-65
2021/05/13 04:34:55;;;;;;;0.00;0.00;;;;;;;;;;5021555;28;20216;-65
2021/05/13 04:37:21;;;;;;;2.73;1.97;;;;;;;;;;5019139;28;20810;-65
2021/05/13 04:39:48;;;;;;;0.57;0.40;;;;;;;;;;5017727;28;21092;-65
2021/05/13 04:42:14;;;;;;;0.00;0.00;;;;;;;;;;5026021;28;20731;-65
2021/05/13 04:44:41;;;;;;;0.00;0.00;;;;;;;;;;5017208;28;20195;-65
2021/05/13 04:47:33;;;;;;;0.43;0.33;;;;;;;;;;5014540;28;20554;-66
2021/05/13 04:50:00;;;;;;;0.00;0.00;;;;;;;;;;5012338;28;20192;-65
2021/05/13 04:52:27;;;;;;;2.47;0.53;;;;;;;;;;5017056;28;20200;-65
2021/05/13 04:54:54;;;;;;;0.30;0.30;;;;;;;;;;5017260;28;20218;-65
2021/05/13 04:57:21;;;;;;;1.27;0.67;;;;;;;;;;5015656;28;20246;-65
2021/05/13 04:59:48;;;;;;;0.10;0.10;;;;;;;;;;5012756;28;20194;-65
2021/05/13 05:02:16;;;;;;;0.00;0.00;;;;;;;;;;5010460;28;20633;-66
2021/05/13 05:04:43;;;;;;;4.37;2.37;;;;;;;;;;5011103;28;20191;-67
2021/05/13 05:07:09;;;;;;;0.00;0.00;;;;;;;;;;5015415;28;20195;-66
2021/05/13 05:09:36;;;;;;;0.23;0.23;;;;;;;;;;5014159;28;20242;-68
2021/05/13 05:12:03;;;;;;;0.00;0.00;;;;;;;;;;5015740;28;20211;-66
2021/05/13 05:14:29;;;;;;;9.27;2.13;;;;;;;;;;5010436;28;20459;-65
2021/05/13 05:16:57;;;;;;;1.43;1.33;;;;;;;;;;5011176;28;20241;-66
2021/05/13 05:19:23;;;;;;;2.60;0.70;;;;;;;;;;5010942;28;20192;-65
2021/05/13 05:21:50;;;;;;;2.23;0.43;;;;;;;;;;5015023;28;20192;-66
2021/05/13 05:24:17;;;;;;;8.73;0.63;;;;;;;;;;5015880;28;20637;-66
2021/05/13 05:26:43;;;;;;;3.93;1.83;;;;;;;;;;4999531;28;20203;-65
2021/05/13 05:29:10;;;;;;;0.83;0.83;;;;;;;;;;5014374;28;20199;-65
2021/05/13 05:31:36;;;;;;;1.70;0.30;;;;;;;;;;5014663;28;20346;-65
2021/05/13 05:34:03;;;;;;;0.00;0.00;;;;;;;;;;5015900;28;20223;-65
2021/05/13 05:36:30;;;;;;;0.00;0.00;;;;;;;;;;5016034;28;20725;-65
2021/05/13 05:38:59;;;;;;;0.00;0.00;;;;;;;;;;5014345;28;20249;-65
2021/05/13 05:41:25;;;;;;;1.00;1.00;;;;;;;;;;5019079;28;20691;-66
2021/05/13 05:43:52;;;;;;;0.10;0.10;;;;;;;;;;5021414;28;20509;-65
2021/05/13 05:46:18;;;;;;;5.03;1.30;;;;;;;;;;5013426;28;20398;-65
2021/05/13 05:48:45;;;;;;;1.30;0.73;;;;;;;;;;5011504;28;20192;-66
2021/05/13 05:51:12;;;;;;;0.00;0.00;;;;;;;;;;5012982;28;20375;-66
2021/05/13 05:53:38;;;;;;;0.00;0.00;;;;;;;;;;5016746;28;20669;-65
2021/05/13 05:56:05;;;;;;;0.20;0.20;;;;;;;;;;5014167;28;20229;-66
2021/05/13 05:58:31;;;;;;;0.00;0.00;;;;;;;;;;5012453;28;20659;-66
2021/05/13 06:00:58;;;;;;;2.07;0.70;;;;;;;;;;5020316;28;20198;-66
2021/05/13 06:03:25;;;;;;;0.00;0.00;;;;;;;;;;5015874;28;22076;-66
2021/05/13 06:05:52;;;;;;;0.83;0.47;;;;;;;;;;5018582;28;20453;-66
2021/05/13 06:08:19;;;;;;;1.90;0.70;;;;;;;;;;5022440;28;20650;-66
2021/05/13 06:10:45;;;;;;;0.00;0.00;;;;;;;;;;5026364;28;20308;-66
2021/05/13 06:13:12;;;;;;;0.00;0.00;;;;;;;;;;5024872;28;20199;-66
2021/05/13 06:15:38;;;;;;;0.47;0.37;;;;;;;;;;5013235;28;20648;-66
2021/05/13 06:18:05;;;;;;;0.53;0.30;;;;;;;;;;5018947;28;20188;-64
2021/05/13 06:20:33;;;;;;;0.20;0.20;;;;;;;;;;5017192;28;20194;-65
2021/05/13 06:23:00;;;;;;;0.40;0.40;;;;;;;;;;5018951;28;20173;-65
2021/05/13 06:25:27;;;;;;;0.00;0.00;;;;;;;;;;5019005;28;20203;-65
2021/05/13 06:27:54;;;;;;;0.00;0.00;;;;;;;;;;5020397;28;20241;-65
2021/05/13 06:30:21;;;;;;;0.93;0.77;;;;;;;;;;5029667;28;20257;-65
2021/05/13 06:32:48;;;;;;;0.90;0.47;;;;;;;;;;5019943;28;20880;-65
2021/05/13 06:35:16;;;;;;;9.23;0.70;;;;;;;;;;5019443;28;20212;-65
2021/05/13 06:37:43;;;;;;;2.47;0.33;;;;;;;;;;5019521;28;20214;-65
2021/05/13 06:40:09;;;;;;;0.00;0.00;;;;;;;;;;5019533;28;20195;-65
2021/05/13 06:42:36;;;;;;;0.20;0.20;;;;;;;;;;5020726;28;20257;-65
2021/05/13 06:45:06;;;;;;;0.20;0.20;;;;;;;;;;5013879;28;20396;-65
2021/05/13 06:47:33;;;;;;;1.60;0.30;;;;;;;;;;5022006;28;20196;-65
2021/05/13 06:50:00;;;;;;;0.00;0.00;;;;;;;;;;5016249;28;20197;-65
2021/05/13 06:52:26;;;;;;;0.10;0.10;;;;;;;;;;5025067;28;20203;-65
2021/05/13 06:54:53;;;;;;;3.50;0.37;;;;;;;;;;5017691;28;20218;-65
2021/05/13 06:57:20;;;;;;;0.20;0.20;;;;;;;;;;5021517;28;20293;-65
2021/05/13 06:59:46;;;;;;;0.83;0.83;;;;;;;;;;5021332;28;20227;-65
2021/05/13 07:02:13;;;;;;;0.00;0.00;;;;;;;;;;5021971;28;20198;-65
2021/05/13 07:04:40;;;;;;;0.07;0.07;;;;;;;;;;5021034;28;20230;-65
2021/05/13 07:07:07;;;;;;;0.00;0.00;;;;;;;;;;5022613;28;20187;-65
2021/05/13 07:09:33;;;;;;;0.10;0.10;;;;;;;;;;5021943;28;20219;-65
2021/05/13 07:12:00;;;;;;;0.10;0.10;;;;;;;;;;5021337;28;20188;-65
2021/05/13 07:14:27;;;;;;;2.73;0.30;;;;;;;;;;5022131;28;20219;-65
2021/05/13 07:16:53;;;;;;;7.93;1.20;;;;;;;;;;5020383;28;20192;-66
2021/05/13 07:19:20;;;;;;;0.40;0.40;;;;;;;;;;5020401;28;20192;-65
2021/05/13 13:04:52;;;;;;;0.00;0.00;;;;;;;;;;5068944;27;21288;-66
2021/05/13 13:07:19;;;;;;;0.33;0.33;;;;;;;;;;5072438;28;20541;-66
2021/05/13 13:09:45;;;;;;;8.20;1.30;;;;;;;;;;5070417;28;20188;-66
2021/05/13 13:12:16;;;;;;;0.17;0.17;;;;;;;;;;5076477;28;20283;-66
2021/05/13 13:17:26;;;;;;;4.23;0.93;;;;;;;;;;5070318;28;20855;-66
2021/05/13 13:20:04;;;;;;;2.20;1.67;;;;;;;;;;5069796;28;20775;-66
2021/05/13 13:22:31;;;;;;;0.77;0.43;;;;;;;;;;5075622;28;20696;-66
2021/05/13 13:25:05;;;;;;;0.33;0.33;;;;;;;;;;5074993;28;20194;-66
2021/05/13 13:27:37;;;;;;;2.30;1.20;;;;;;;;;;5075373;28;20195;-66
2021/05/13 13:30:11;;;;;;;0.40;0.40;;;;;;;;;;5075499;28;20601;-65
2021/05/13 13:32:39;;;;;;;2.00;0.53;;;;;;;;;;5070648;28;20188;-67
2021/05/13 13:35:08;;;;;;;1.03;0.60;;;;;;;;;;5073332;28;20170;-65
2021/05/13 13:37:35;;;;;;;1.50;0.17;;;;;;;;;;5075718;28;20182;-65
2021/05/13 13:40:02;;;;;;;1.90;1.03;;;;;;;;;;5077081;28;20181;-65
2021/05/13 13:42:30;;;;;;;3.20;1.93;;;;;;;;;;5075685;28;20264;-65
2021/05/13 13:44:57;;;;;;;0.97;0.97;;;;;;;;;;5068873;28;20190;-65
2021/05/13 13:47:25;;;;;;;3.60;0.67;;;;;;;;;;5073979;28;20281;-65
2021/05/13 13:49:51;;;;;;;0.00;0.00;;;;;;;;;;5078007;28;20178;-66
2021/05/13 13:52:18;;;;;;;1.17;0.40;;;;;;;;;;5074907;28;20187;-65
2021/05/13 13:54:44;;;;;;;0.50;0.20;;;;;;;;;;5063690;28;20638;-65
2021/05/13 13:57:11;;;;;;;0.00;0.00;;;;;;;;;;5073378;28;20202;-65
2021/05/13 13:59:38;;;;;;;0.50;0.20;;;;;;;;;;5068287;28;20308;-65
2021/05/13 14:02:04;;;;;;;3.40;2.67;;;;;;;;;;5074687;28;20646;-65
2021/05/13 14:04:31;;;;;;;2.50;1.40;;;;;;;;;;5067645;28;20230;-65
2021/05/13 14:06:57;;;;;;;0.00;0.00;;;;;;;;;;5074375;28;20759;-65
2021/05/13 14:09:24;;;;;;;0.63;0.60;;;;;;;;;;5074530;28;20574;-66
2021/05/13 14:11:51;;;;;;;0.67;0.33;;;;;;;;;;5070520;28;20182;-65
2021/05/13 14:14:17;;;;;;;0.00;0.00;;;;;;;;;;5073891;28;20191;-65
2021/05/13 14:16:44;;;;;;;0.30;0.30;;;;;;;;;;5060763;28;20529;-65
2021/05/13 14:19:10;;;;;;;1.13;0.13;;;;;;;;;;5060722;28;20308;-66
2021/05/13 14:21:38;;;;;;;5.83;1.70;;;;;;;;;;5061131;28;20252;-66
2021/05/13 14:24:07;;;;;;;0.20;0.10;;;;;;;;;;5060964;28;20570;-65
2021/05/13 14:26:34;;;;;;;1.23;0.30;;;;;;;;;;5055007;28;20201;-63
2021/05/13 14:29:01;;;;;;;9.90;5.23;;;;;;;;;;5061009;28;20188;-64
2021/05/13 14:31:27;;;;;;;0.53;0.53;;;;;;;;;;5047813;28;20183;-64
2021/05/13 14:33:54;;;;;;;0.17;0.17;;;;;;;;;;5060273;28;20195;-64
2021/05/13 14:36:22;;;;;;;1.80;0.63;;;;;;;;;;5059940;28;20195;-64
2021/05/13 14:38:49;;;;;;;0.30;0.30;;;;;;;;;;5060391;28;20238;-65
2021/05/13 14:41:18;;;;;;;2.30;0.50;;;;;;;;;;5060555;28;20217;-65
2021/05/13 14:43:46;;;;;;;5.20;1.30;;;;;;;;;;5060233;28;20600;-64
2021/05/13 14:46:13;;;;;;;0.10;0.10;;;;;;;;;;5063028;28;20181;-64
2021/05/13 14:51:09;;;;;;;1.50;0.83;;;;;;;;;;5058058;28;20581;-65
2021/05/13 14:53:36;;;;;;;0.00;0.00;;;;;;;;;;5060612;28;20319;-65
2021/05/13 14:56:02;;;;;;;8.80;1.07;;;;;;;;;;5059853;28;20196;-65
2021/05/13 14:58:31;;;;;;;11.07;2.20;;;;;;;;;;5053173;28;20186;-65
2021/05/13 15:00:58;;;;;;;0.57;0.47;;;;;;;;;;5060484;28;20223;-64
2021/05/13 15:03:27;;;;;;;0.73;0.50;;;;;;;;;;5060289;28;20236;-65
2021/05/13 15:05:53;;;;;;;0.10;0.10;;;;;;;;;;5062394;28;20178;-64
2021/05/13 15:08:20;;;;;;;0.13;0.00;;;;;;;;;;5056061;28;20635;-65
2021/05/13 15:10:47;;;;;;;9.80;2.07;;;;;;;;;;5051187;28;20582;-69
2021/05/13 15:13:13;;;;;;;1.90;0.93;;;;;;;;;;5053719;28;20569;-68
2021/05/13 15:15:40;;;;;;;1.70;0.97;;;;;;;;;;5053408;28;20686;-70
2021/05/13 15:18:06;;;;;;;3.23;1.73;;;;;;;;;;5059682;28;20660;-70
2021/05/13 15:20:33;;;;;;;2.93;1.10;;;;;;;;;;5060074;28;20210;-70
2021/05/13 15:23:00;;;;;;;7.27;1.70;;;;;;;;;;5051303;28;20302;-70
2021/05/13 15:25:26;;;;;;;7.93;1.57;;;;;;;;;;5051364;28;20513;-69
2021/05/13 15:27:53;;;;;;;0.67;0.67;;;;;;;;;;5058191;28;20189;-70
2021/05/13 15:30:21;;;;;;;1.00;0.13;;;;;;;;;;5054086;28;20187;-69
2021/05/13 15:32:48;;;;;;;1.83;1.13;;;;;;;;;;5057253;28;20577;-70
2021/05/13 15:35:14;;;;;;;2.70;1.00;;;;;;;;;;5051442;28;20205;-70
2021/05/13 15:37:41;;;;;;;0.37;0.37;;;;;;;;;;5046861;28;20202;-70
2021/05/13 15:40:08;;;;;;;0.37;0.37;;;;;;;;;;5056570;28;20193;-69
2021/05/13 15:42:35;;;;;;;0.30;0.30;;;;;;;;;;5065029;28;20183;-69
2021/05/13 15:45:01;;;;;;;3.30;1.90;;;;;;;;;;5060922;28;20179;-70
2021/05/13 15:47:28;;;;;;;0.20;0.20;;;;;;;;;;5056447;28;20183;-70
2021/05/13 15:49:54;;;;;;;1.47;0.63;;;;;;;;;;5054494;28;20629;-70
2021/05/13 15:52:21;;;;;;;0.57;0.57;;;;;;;;;;5056915;28;20719;-69
2021/05/13 15:54:47;;;;;;;0.20;0.20;;;;;;;;;;5057162;28;20211;-69
2021/05/13 15:57:14;;;;;;;0.30;0.23;;;;;;;;;;5052566;28;20183;-69
2021/05/13 15:59:41;;;;;;;0.47;0.47;;;;;;;;;;5050638;28;20251;-70
2021/05/13 16:02:07;;;;;;;0.03;0.03;;;;;;;;;;5048885;28;20551;-69
2021/05/13 16:04:34;;;;;;;7.23;1.07;;;;;;;;;;5051793;28;20230;-70
2021/05/13 16:07:01;;;;;;;0.10;0.10;;;;;;;;;;5053402;28;20189;-69
2021/05/13 16:09:27;;;;;;;1.37;1.13;;;;;;;;;;5050779;28;20511;-70
2021/05/13 16:11:59;;;;;;;2.90;1.40;;;;;;;;;;5057343;28;20203;-69
2021/05/13 16:14:26;;;;;;;0.13;0.13;;;;;;;;;;5053429;28;20203;-71
2021/05/13 16:16:53;;;;;;;5.10;1.33;;;;;;;;;;5050237;28;20218;-69
2021/05/13 16:19:19;;;;;;;6.17;0.60;;;;;;;;;;5054104;28;20193;-69
2021/05/13 16:21:47;;;;;;;3.10;0.50;;;;;;;;;;5045470;28;20691;-69
2021/05/13 16:24:15;;;;;;;1.07;0.63;;;;;;;;;;5058190;28;20214;-71
2021/05/13 16:26:43;;;;;;;0.90;0.43;;;;;;;;;;5054772;28;20581;-72
2021/05/13 16:29:10;;;;;;;0.10;0.10;;;;;;;;;;5048486;28;20260;-70
2021/05/13 16:31:37;;;;;;;0.93;0.33;;;;;;;;;;5048815;28;20632;-69
2021/05/13 16:34:04;;;;;;;1.60;0.60;;;;;;;;;;5049906;28;20187;-70
2021/05/13 16:36:31;;;;;;;1.70;0.13;;;;;;;;;;5057414;28;20885;-71
2021/05/13 16:38:58;;;;;;;0.13;0.13;;;;;;;;;;5056689;28;20205;-74
2021/05/13 16:41:25;;;;;;;0.00;0.00;;;;;;;;;;5049102;28;20609;-64
2021/05/13 16:43:51;;;;;;;0.53;0.43;;;;;;;;;;5056384;28;20616;-64
2021/05/13 16:46:18;;;;;;;2.43;0.97;;;;;;;;;;5057406;28;20189;-64
2021/05/13 16:48:45;;;;;;;1.80;0.27;;;;;;;;;;5053463;28;20263;-68
2021/05/13 16:51:12;;;;;;;4.97;2.17;;;;;;;;;;5056850;28;20182;-67
2021/05/13 16:53:39;;;;;;;0.27;0.27;;;;;;;;;;5045703;28;20183;-69
2021/05/13 16:56:05;;;;;;;0.53;0.53;;;;;;;;;;5047656;28;20292;-69
2021/05/13 16:58:32;;;;;;;0.90;0.90;;;;;;;;;;5043994;28;20186;-68
2021/05/13 17:00:58;;;;;;;1.23;0.37;;;;;;;;;;5055668;28;20415;-68
2021/05/13 17:03:25;;;;;;;0.27;0.27;;;;;;;;;;5055068;28;20231;-67
2021/05/13 17:05:59;;;;;;;0.20;0.20;;;;;;;;;;5046463;28;20775;-68
2021/05/13 17:08:25;;;;;;;0.00;0.00;;;;;;;;;;5055096;28;20260;-68
2021/05/13 17:10:52;;;;;;;0.30;0.30;;;;;;;;;;5053130;28;20341;-67
2021/05/13 17:13:18;;;;;;;7.70;0.30;;;;;;;;;;5049511;28;20529;-68
2021/05/13 17:15:45;;;;;;;1.50;0.87;;;;;;;;;;5055188;28;20193;-67
2021/05/13 17:18:11;;;;;;;11.30;0.93;;;;;;;;;;5052262;28;20188;-69
2021/05/13 17:20:38;;;;;;;8.10;0.53;;;;;;;;;;5054730;28;20194;-68
2021/05/13 17:23:06;;;;;;;2.07;0.57;;;;;;;;;;5056739;28;20595;-67
2021/05/13 17:25:33;;;;;;;3.00;0.77;;;;;;;;;;5043958;28;20282;-68
2021/05/13 17:27:59;;;;;;;0.60;0.60;;;;;;;;;;5056472;28;20699;-67
2021/05/13 17:30:26;;;;;;;13.33;1.80;;;;;;;;;;5049181;28;20235;-66
2021/05/13 17:32:53;;;;;;;1.40;0.30;;;;;;;;;;5046928;28;20192;-67
2021/05/13 17:35:19;;;;;;;0.87;0.30;;;;;;;;;;5049400;28;20188;-68
2021/05/13 17:37:46;;;;;;;2.90;0.57;;;;;;;;;;5045905;28;20251;-69
2021/05/13 17:40:14;;;;;;;1.60;0.90;;;;;;;;;;5055885;28;20198;-69
2021/05/13 17:42:40;;;;;;;1.70;0.70;;;;;;;;;;5057064;28;20206;-70
2021/05/13 17:45:08;;;;;;;2.23;0.33;;;;;;;;;;5054310;28;20312;-69
2021/05/13 17:47:35;;;;;;;0.73;0.50;;;;;;;;;;5052613;28;20476;-67
2021/05/13 17:50:06;;;;;;;7.67;3.07;;;;;;;;;;5058208;28;20246;-68
2021/05/13 17:52:32;;;;;;;1.63;1.33;;;;;;;;;;5057495;28;20615;-68
2021/05/13 17:54:59;;;;;;;0.67;0.30;;;;;;;;;;5060658;28;20186;-68
2021/05/13 17:57:26;;;;;;;0.23;0.10;;;;;;;;;;5059548;28;20269;-67
2021/05/13 17:59:53;;;;;;;0.13;0.03;;;;;;;;;;5051375;28;20254;-68
2021/05/13 18:02:20;;;;;;;5.40;0.43;;;;;;;;;;5060513;28;20335;-67
2021/05/13 18:04:46;;;;;;;1.17;1.07;;;;;;;;;;5063722;28;20242;-68
2021/05/13 18:07:13;;;;;;;1.50;0.30;;;;;;;;;;5058707;28;20620;-67
2021/05/13 18:09:40;;;;;;;3.90;0.73;;;;;;;;;;5058897;28;20196;-68
2021/05/13 18:12:07;;;;;;;3.03;0.47;;;;;;;;;;5060000;28;20187;-67
2021/05/13 18:14:33;;;;;;;0.30;0.20;;;;;;;;;;5057584;28;20539;-68
2021/05/13 18:17:00;;;;;;;0.30;0.30;;;;;;;;;;5057713;28;20193;-67
2021/05/13 18:19:26;;;;;;;0.50;0.50;;;;;;;;;;5058387;28;20243;-68
2021/05/13 18:21:54;;;;;;;0.40;0.27;;;;;;;;;;5057171;28;20620;-67
2021/05/13 18:24:20;;;;;;;4.50;1.40;;;;;;;;;;5058229;28;20238;-67
2021/05/13 18:26:48;;;;;;;0.07;0.07;;;;;;;;;;5060107;28;20612;-68
2021/05/13 18:29:16;;;;;;;0.40;0.27;;;;;;;;;;5056187;28;20601;-68
2021/05/13 18:31:43;;;;;;;0.33;0.33;;;;;;;;;;5060705;28;20214;-69
2021/05/13 18:34:10;;;;;;;0.00;0.00;;;;;;;;;;5059520;28;20626;-69
2021/05/13 18:36:36;;;;;;;0.10;0.10;;;;;;;;;;5049508;28;20266;-65
2021/05/13 18:39:04;;;;;;;0.00;0.00;;;;;;;;;;5065849;28;20184;-64
2021/05/13 18:41:31;;;;;;;0.03;0.03;;;;;;;;;;5058978;28;20455;-65
2021/05/13 18:43:58;;;;;;;0.00;0.00;;;;;;;;;;5052895;28;20238;-65
2021/05/13 18:46:24;;;;;;;3.23;0.50;;;;;;;;;;5053254;28;20681;-64
2021/05/13 18:48:51;;;;;;;0.13;0.13;;;;;;;;;;5058685;28;20189;-65
2021/05/13 18:51:18;;;;;;;0.80;0.40;;;;;;;;;;5052770;28;20175;-64
2021/05/13 18:53:44;;;;;;;0.10;0.10;;;;;;;;;;5058687;28;20616;-65
2021/05/13 18:56:11;;;;;;;0.00;0.00;;;;;;;;;;5055102;28;20191;-65
2021/05/13 18:58:38;;;;;;;0.53;0.53;;;;;;;;;;5038659;28;20584;-66
2021/05/13 19:01:05;;;;;;;0.80;0.13;;;;;;;;;;5039703;28;20218;-65
2021/05/13 19:03:31;;;;;;;1.40;1.30;;;;;;;;;;5041592;28;20235;-64
2021/05/13 19:05:58;;;;;;;0.00;0.00;;;;;;;;;;5039477;28;20277;-64
2021/05/13 19:08:24;;;;;;;0.50;0.23;;;;;;;;;;5038991;28;20575;-65
2021/05/13 19:10:51;;;;;;;0.00;0.00;;;;;;;;;;5038553;28;20436;-64
2021/05/13 19:13:19;;;;;;;0.07;0.00;;;;;;;;;;5040422;28;20629;-65
2021/05/13 19:15:47;;;;;;;0.10;0.10;;;;;;;;;;5040555;28;20631;-64
2021/05/13 19:18:17;;;;;;;0.30;0.30;;;;;;;;;;5040229;28;20248;-64
2021/05/13 19:20:45;;;;;;;0.00;0.00;;;;;;;;;;5040026;28;20580;-64
2021/05/13 19:23:12;;;;;;;2.13;0.47;;;;;;;;;;5040194;28;20214;-64
2021/05/13 19:25:39;;;;;;;9.63;0.87;;;;;;;;;;5036104;28;20188;-69
2021/05/13 19:28:06;;;;;;;0.20;0.20;;;;;;;;;;5039796;28;20233;-69
2021/05/13 19:36:12;;;;;;;0.00;0.00;;;;;;;;;;5039627;28;20300;-69
2021/05/13 19:38:38;;;;;;;0.00;0.00;;;;;;;;;;5034499;28;20191;-70
2021/05/13 19:41:05;;;;;;;4.90;0.90;;;;;;;;;;5038865;28;20203;-70
2021/05/13 19:43:32;;;;;;;1.70;0.93;;;;;;;;;;5038008;28;20725;-62
2021/05/13 19:45:59;;;;;;;1.10;0.50;;;;;;;;;;5045067;28;20918;-62
2021/05/13 19:48:25;;;;;;;0.77;0.30;;;;;;;;;;5037986;28;20184;-62
2021/05/13 19:50:54;;;;;;;0.93;0.70;;;;;;;;;;5043675;28;20180;-63
2021/05/13 19:53:20;;;;;;;0.20;0.20;;;;;;;;;;5035713;28;20191;-70
2021/05/13 19:55:51;;;;;;;1.50;0.93;;;;;;;;;;5043311;28;20294;-69
2021/05/13 19:58:19;;;;;;;0.00;0.00;;;;;;;;;;5034944;28;20184;-69
2021/05/13 20:00:47;;;;;;;1.40;0.77;;;;;;;;;;5041446;28;20183;-69
2021/05/13 20:03:23;;;;;;;24.93;8.13;;;;;;;;;;5037962;28;20307;-68
2021/05/13 20:13:38;;;;;;;0.83;0.00;;;;;;;;;;5038831;28;20298;-65
2021/05/13 20:16:05;;;;;;;0.20;0.20;;;;;;;;;;5037679;28;20215;-64
2021/05/13 20:18:33;;;;;;;0.00;0.00;;;;;;;;;;5038900;28;20172;-68
2021/05/13 20:21:01;;;;;;;0.87;0.87;;;;;;;;;;5038992;28;20769;-68
2021/05/13 20:23:29;;;;;;;0.00;0.00;;;;;;;;;;5040681;28;20258;-67
2021/05/13 20:28:46;;;;;;;0.20;0.20;;;;;;;;;;5038415;28;20255;-67
2021/05/13 20:31:14;;;;;;;0.13;0.13;;;;;;;;;;5037736;28;20201;-68
2021/05/13 20:33:41;;;;;;;3.53;0.70;;;;;;;;;;5037814;28;20188;-69
2021/05/13 20:36:08;;;;;;;1.50;1.40;;;;;;;;;;5029722;28;20216;-70
2021/05/13 20:38:35;;;;;;;3.07;0.47;;;;;;;;;;5032982;28;20188;-71
2021/05/13 20:41:05;;;;;;;0.30;0.30;;;;;;;;;;5037865;28;20225;-75
2021/05/13 20:43:32;;;;;;;0.00;0.00;;;;;;;;;;5036762;28;20289;-72
2021/05/13 20:45:59;;;;;;;2.67;0.20;;;;;;;;;;5035006;28;20194;-72
2021/05/13 20:48:36;;;;;;;0.27;0.27;;;;;;;;;;5032261;28;20187;-67
2021/05/13 20:51:21;;;;;;;0.23;0.10;;;;;;;;;;5035179;28;20745;-72
2021/05/13 21:01:45;;;;;;;0.00;0.00;;;;;;;;;;5038808;28;20314;-73